Time;durP1;ratioP1;P1;durP2;ratioP2;P2;SDS_P1;SDS_P2;PMS_P1;PMS_P2;Temp;Humidity;BMP_temperature;BMP_pressure;BME280_temperature;BME280_humidity;BME280_pressure;Samples;Min_cycle;Max_cycle;Signal;HPM_P1;HPM_P2
2022/04/11 00:01:30;;;;;;;4.85;2.35;;;7.10;99.90;;;;;;5054565;28;20029;-64
2022/04/11 00:03:55;;;;;;;6.32;2.35;;;7.10;99.90;;;;;;5053112;28;20119;-65
2022/04/11 00:06:21;;;;;;;5.88;2.53;;;7.10;99.90;;;;;;5053839;28;20029;-64
2022/04/11 00:08:47;;;;;;;6.78;2.42;;;7.10;99.90;;;;;;5052737;28;20040;-65
2022/04/11 00:11:13;;;;;;;6.55;2.40;;;7.10;99.90;;;;;;5052198;28;20451;-65
2022/04/11 00:13:38;;;;;;;10.25;2.58;;;7.00;99.90;;;;;;5052937;28;20346;-65
2022/04/11 00:16:07;;;;;;;8.88;2.58;;;7.10;99.90;;;;;;5054401;28;20028;-65
2022/04/11 00:18:33;;;;;;;4.32;2.20;;;7.00;99.90;;;;;;5054454;28;20025;-65
2022/04/11 00:20:59;;;;;;;9.07;2.40;;;7.00;99.90;;;;;;5053617;28;20066;-65
2022/04/11 00:23:25;;;;;;;7.57;3.15;;;7.00;99.90;;;;;;5052505;28;20021;-65
2022/04/11 00:25:50;;;;;;;9.13;2.65;;;7.00;99.90;;;;;;5052469;28;20045;-65
2022/04/11 00:28:16;;;;;;;8.15;2.50;;;6.90;99.90;;;;;;5052552;28;20112;-65
2022/04/11 00:30:41;;;;;;;6.70;2.10;;;6.90;99.90;;;;;;5054081;28;20095;-65
2022/04/11 00:33:07;;;;;;;9.52;2.42;;;6.90;99.90;;;;;;5054009;28;20094;-65
2022/04/11 00:35:32;;;;;;;7.65;2.30;;;6.90;99.90;;;;;;5053318;28;20037;-65
2022/04/11 00:37:58;;;;;;;8.52;2.67;;;6.90;99.90;;;;;;5053207;28;20150;-65
2022/04/11 00:40:24;;;;;;;7.28;2.30;;;6.90;99.90;;;;;;5051788;28;20097;-64
2022/04/11 00:42:49;;;;;;;5.53;2.13;;;6.90;99.90;;;;;;5053346;28;20151;-65
2022/04/11 00:45:15;;;;;;;5.60;2.22;;;6.80;99.90;;;;;;5053490;28;20338;-65
2022/04/11 00:47:42;;;;;;;7.00;2.38;;;6.80;99.90;;;;;;5051859;28;20070;-65
2022/04/11 00:50:11;;;;;;;6.65;2.38;;;6.80;99.90;;;;;;5053271;28;20104;-65
2022/04/11 00:52:39;;;;;;;3.60;2.30;;;6.80;99.90;;;;;;5053038;28;20104;-65
2022/04/11 00:55:07;;;;;;;6.15;2.30;;;6.80;99.90;;;;;;5053501;28;20013;-66
2022/04/11 00:57:33;;;;;;;5.63;2.00;;;6.80;99.90;;;;;;5037284;28;20368;-65
2022/04/11 00:59:59;;;;;;;3.55;1.73;;;6.80;99.90;;;;;;5052735;28;20082;-65
2022/04/11 01:02:26;;;;;;;5.55;2.13;;;6.80;99.90;;;;;;5053080;28;20032;-64
2022/04/11 01:04:51;;;;;;;7.55;2.72;;;6.90;99.90;;;;;;5052534;28;20117;-65
2022/04/11 01:07:19;;;;;;;6.35;2.20;;;6.90;99.90;;;;;;5051324;28;20449;-65
2022/04/11 01:09:45;;;;;;;6.22;2.10;;;6.90;99.90;;;;;;5052515;28;20040;-65
2022/04/11 01:12:13;;;;;;;6.88;2.15;;;6.90;99.90;;;;;;5053404;28;20021;-65
2022/04/11 01:14:39;;;;;;;13.27;4.60;;;7.00;99.90;;;;;;5053250;28;20021;-65
2022/04/11 01:17:04;;;;;;;8.15;2.28;;;6.90;99.90;;;;;;5053034;28;20377;-65
2022/04/11 01:19:30;;;;;;;8.40;2.33;;;7.00;99.90;;;;;;5051409;28;20025;-66
2022/04/11 01:21:56;;;;;;;5.38;2.13;;;7.00;99.90;;;;;;5051730;28;20178;-66
2022/04/11 01:24:22;;;;;;;9.18;1.98;;;7.00;99.90;;;;;;5053085;28;20082;-65
2022/04/11 01:26:49;;;;;;;7.20;2.58;;;6.90;99.90;;;;;;5050925;28;20370;-66
2022/04/11 01:29:16;;;;;;;8.10;2.30;;;6.90;99.90;;;;;;5052999;28;20079;-65
2022/04/11 01:31:43;;;;;;;3.75;2.25;;;7.00;99.90;;;;;;5051052;28;20020;-66
2022/04/11 01:34:08;;;;;;;7.93;2.60;;;6.90;99.90;;;;;;5052007;28;20514;-65
2022/04/11 01:36:34;;;;;;;7.07;2.08;;;7.00;99.90;;;;;;5052925;28;20025;-65
2022/04/11 01:38:59;;;;;;;5.05;2.03;;;7.00;99.90;;;;;;5050766;28;20480;-65
2022/04/11 01:41:25;;;;;;;3.78;2.25;;;6.90;99.90;;;;;;5052475;28;20036;-65
2022/04/11 01:43:50;;;;;;;8.45;2.22;;;6.90;99.90;;;;;;5050768;28;20465;-65
2022/04/11 01:46:16;;;;;;;6.25;2.45;;;6.90;99.90;;;;;;5052445;28;20245;-65
2022/04/11 01:48:42;;;;;;;4.28;1.85;;;6.80;99.90;;;;;;5052000;28;20049;-65
2022/04/11 01:51:07;;;;;;;8.20;2.40;;;6.80;99.90;;;;;;5051875;28;20028;-65
2022/04/11 01:53:33;;;;;;;9.98;2.55;;;6.80;99.90;;;;;;5052535;28;20029;-65
2022/04/11 01:55:59;;;;;;;5.68;2.28;;;6.70;99.90;;;;;;5052153;28;20541;-66
2022/04/11 01:58:24;;;;;;;7.63;2.17;;;6.80;99.90;;;;;;5052661;28;20038;-65
2022/04/11 02:00:50;;;;;;;5.32;2.20;;;6.70;99.90;;;;;;5051524;28;20025;-65
2022/04/11 02:03:16;;;;;;;6.85;1.98;;;6.70;99.90;;;;;;5052098;28;20067;-65
2022/04/11 02:05:42;;;;;;;6.03;2.28;;;6.70;99.90;;;;;;5051987;28;20136;-65
2022/04/11 02:08:10;;;;;;;7.38;2.80;;;6.60;99.90;;;;;;5049338;28;20115;-65
2022/04/11 02:10:37;;;;;;;6.82;2.90;;;6.60;99.90;;;;;;5051157;28;20025;-65
2022/04/11 02:13:04;;;;;;;8.75;3.90;;;6.60;99.90;;;;;;5051417;28;20074;-65
2022/04/11 02:15:30;;;;;;;6.85;2.60;;;6.60;99.90;;;;;;5052215;28;20419;-66
2022/04/11 02:17:55;;;;;;;6.80;2.85;;;6.50;99.90;;;;;;5052487;28;20490;-65
2022/04/11 02:20:21;;;;;;;7.32;2.92;;;6.50;99.90;;;;;;5051402;28;20033;-65
2022/04/11 02:22:52;;;;;;;8.00;2.90;;;6.50;99.90;;;;;;5051932;28;20028;-64
2022/04/11 02:25:20;;;;;;;10.35;3.30;;;6.50;99.90;;;;;;5051978;28;20021;-65
2022/04/11 02:27:46;;;;;;;7.35;2.83;;;6.40;99.90;;;;;;5051604;28;20044;-65
2022/04/11 02:30:14;;;;;;;7.85;3.30;;;6.40;99.90;;;;;;5051873;28;20021;-65
2022/04/11 02:32:39;;;;;;;10.90;4.32;;;6.40;99.90;;;;;;5051154;28;20017;-65
2022/04/11 02:35:06;;;;;;;9.10;3.33;;;6.40;99.90;;;;;;5051239;28;20075;-65
2022/04/11 02:37:33;;;;;;;8.07;3.00;;;6.40;99.90;;;;;;5052205;28;20037;-65
2022/04/11 02:39:59;;;;;;;10.68;3.33;;;6.40;99.90;;;;;;5052132;28;20017;-65
2022/04/11 02:42:25;;;;;;;8.52;3.33;;;6.40;99.90;;;;;;5051498;28;20135;-65
2022/04/11 02:44:51;;;;;;;10.98;2.90;;;6.40;99.90;;;;;;5050684;28;20085;-65
2022/04/11 02:47:17;;;;;;;14.45;4.20;;;6.40;99.90;;;;;;5051471;28;20101;-65
2022/04/11 02:49:43;;;;;;;10.15;3.33;;;6.40;99.90;;;;;;5051106;28;20376;-65
2022/04/11 02:52:08;;;;;;;5.78;2.75;;;6.50;99.90;;;;;;5050501;28;20029;-65
2022/04/11 02:54:35;;;;;;;6.20;3.03;;;6.50;99.90;;;;;;5051824;28;20020;-65
2022/04/11 02:57:01;;;;;;;9.65;3.40;;;6.50;99.90;;;;;;5051218;28;20571;-64
2022/04/11 02:59:26;;;;;;;7.55;3.28;;;6.50;99.90;;;;;;5051325;28;20033;-64
2022/04/11 03:01:52;;;;;;;7.43;3.33;;;6.60;99.90;;;;;;5051255;28;20025;-64
2022/04/11 03:04:17;;;;;;;9.15;2.80;;;6.60;99.90;;;;;;5051291;28;20519;-65
2022/04/11 03:06:43;;;;;;;6.60;2.70;;;6.60;99.90;;;;;;5051716;28;20025;-65
2022/04/11 03:09:08;;;;;;;8.70;2.85;;;6.60;99.90;;;;;;5051200;28;20124;-64
2022/04/11 03:11:34;;;;;;;7.55;3.35;;;6.70;99.90;;;;;;5051151;28;20464;-65
2022/04/11 03:14:00;;;;;;;11.68;3.30;;;6.70;99.90;;;;;;5051206;28;20215;-65
2022/04/11 03:16:26;;;;;;;14.25;3.40;;;6.70;99.90;;;;;;5050522;28;20116;-65
2022/04/11 03:18:51;;;;;;;9.57;3.35;;;6.70;99.90;;;;;;5051264;28;20021;-66
2022/04/11 03:21:17;;;;;;;6.03;2.58;;;6.70;99.90;;;;;;5049643;28;20099;-66
2022/04/11 03:23:42;;;;;;;8.13;3.10;;;6.70;99.90;;;;;;5051718;28;20082;-66
2022/04/11 03:26:08;;;;;;;10.38;3.30;;;6.70;99.90;;;;;;5051040;28;20045;-64
2022/04/11 03:28:34;;;;;;;9.93;3.38;;;6.80;99.90;;;;;;5050559;28;20039;-65
2022/04/11 03:31:00;;;;;;;11.38;4.18;;;6.80;99.90;;;;;;5051142;28;20037;-65
2022/04/11 03:33:25;;;;;;;10.00;3.65;;;6.80;99.90;;;;;;5051548;28;20457;-65
2022/04/11 03:35:51;;;;;;;8.85;3.25;;;6.80;99.90;;;;;;5051438;28;20024;-65
2022/04/11 03:38:17;;;;;;;7.95;2.75;;;6.90;99.90;;;;;;5048426;28;20096;-65
2022/04/11 03:40:42;;;;;;;10.38;3.45;;;6.90;99.90;;;;;;5050810;28;20438;-65
2022/04/11 03:43:09;;;;;;;6.63;3.30;;;6.90;99.90;;;;;;5050862;28;20150;-65
2022/04/11 03:45:34;;;;;;;7.93;3.40;;;6.90;99.90;;;;;;5051372;28;20172;-65
2022/04/11 03:48:00;;;;;;;8.80;3.17;;;7.00;99.90;;;;;;5050573;28;20183;-65
2022/04/11 03:50:26;;;;;;;10.25;4.32;;;7.00;99.90;;;;;;5050954;28;20364;-65
2022/04/11 03:52:51;;;;;;;11.45;4.50;;;7.00;99.90;;;;;;5049126;28;20029;-64
2022/04/11 03:55:17;;;;;;;9.70;3.75;;;7.10;99.90;;;;;;5049742;28;20037;-65
2022/04/11 03:57:42;;;;;;;9.15;4.28;;;7.20;99.90;;;;;;5050343;28;20025;-65
2022/04/11 04:00:09;;;;;;;11.40;3.85;;;7.20;99.90;;;;;;5050323;28;20449;-65
2022/04/11 04:02:35;;;;;;;12.10;3.63;;;7.30;99.90;;;;;;5050933;28;20021;-65
2022/04/11 04:05:00;;;;;;;9.07;4.00;;;7.30;99.90;;;;;;5053356;28;20119;-65
2022/04/11 04:07:26;;;;;;;8.40;3.63;;;7.30;99.90;;;;;;5053856;28;20033;-66
2022/04/11 04:09:52;;;;;;;8.35;3.65;;;7.40;99.90;;;;;;5053842;28;20119;-65
2022/04/11 04:12:19;;;;;;;9.07;4.00;;;7.40;99.90;;;;;;5053852;28;20037;-65
2022/04/11 04:14:45;;;;;;;9.77;3.47;;;7.40;99.90;;;;;;5053197;28;20372;-65
2022/04/11 04:17:11;;;;;;;8.38;3.50;;;7.50;99.90;;;;;;5054481;28;20429;-65
2022/04/11 04:19:36;;;;;;;8.10;3.78;;;7.50;99.90;;;;;;5053081;28;20101;-65
2022/04/11 04:22:02;;;;;;;12.65;4.60;;;7.50;99.90;;;;;;5053070;28;20365;-65
2022/04/11 04:24:28;;;;;;;8.60;4.10;;;7.50;99.90;;;;;;5054131;28;20064;-65
2022/04/11 04:26:54;;;;;;;11.20;4.00;;;7.50;99.90;;;;;;5053685;28;20128;-65
2022/04/11 04:29:20;;;;;;;9.45;4.22;;;7.50;99.90;;;;;;5053261;28;20046;-64
2022/04/11 04:31:47;;;;;;;10.18;4.35;;;7.50;99.90;;;;;;5053581;28;20021;-65
2022/04/11 04:34:13;;;;;;;12.80;4.85;;;7.60;99.90;;;;;;5052473;28;20032;-65
2022/04/11 04:36:39;;;;;;;9.93;4.13;;;7.60;99.90;;;;;;5051933;28;20025;-65
2022/04/11 04:39:04;;;;;;;10.20;4.55;;;7.60;99.90;;;;;;5054312;28;20028;-65
2022/04/11 04:41:30;;;;;;;9.40;4.47;;;7.60;99.90;;;;;;5053078;28;20036;-64
2022/04/11 04:43:55;;;;;;;14.98;5.35;;;7.60;99.90;;;;;;5054324;28;20477;-65
2022/04/11 04:46:21;;;;;;;12.10;4.85;;;7.60;99.90;;;;;;5053003;28;20017;-65
2022/04/11 04:48:47;;;;;;;11.55;4.53;;;7.70;99.90;;;;;;5053504;28;20397;-65
2022/04/11 04:51:12;;;;;;;15.15;6.68;;;7.70;99.90;;;;;;5053401;28;20016;-65
2022/04/11 04:53:38;;;;;;;12.70;4.78;;;7.70;99.90;;;;;;5052007;28;20108;-64
2022/04/11 04:56:04;;;;;;;16.00;5.53;;;7.70;99.90;;;;;;5053135;28;20025;-64
2022/04/11 04:58:29;;;;;;;12.50;5.22;;;7.70;99.90;;;;;;5053124;28;20579;-66
2022/04/11 05:00:55;;;;;;;11.05;4.88;;;7.70;99.90;;;;;;5039037;28;20124;-66
2022/04/11 05:03:20;;;;;;;13.15;5.63;;;7.60;99.90;;;;;;5053402;28;20100;-64
2022/04/11 05:05:46;;;;;;;10.07;5.18;;;7.60;99.90;;;;;;5051606;28;20017;-65
2022/04/11 05:08:11;;;;;;;12.27;5.13;;;7.60;99.90;;;;;;5052886;28;20107;-65
2022/04/11 05:10:37;;;;;;;11.32;4.72;;;7.60;99.90;;;;;;5052912;28;20045;-65
2022/04/11 05:13:02;;;;;;;12.40;5.60;;;7.60;99.90;;;;;;5052721;28;20088;-65
2022/04/11 05:15:29;;;;;;;14.02;5.78;;;7.60;99.90;;;;;;5051291;28;20112;-65
2022/04/11 05:17:55;;;;;;;15.23;6.60;;;7.60;99.90;;;;;;5053645;28;20070;-66
2022/04/11 05:20:20;;;;;;;11.40;5.88;;;7.60;99.90;;;;;;5052553;28;20464;-64
2022/04/11 05:22:46;;;;;;;12.77;5.97;;;7.60;99.90;;;;;;5052430;28;20052;-65
2022/04/11 05:25:12;;;;;;;15.68;6.25;;;7.60;99.90;;;;;;5052574;28;20107;-65
2022/04/11 05:27:37;;;;;;;13.13;6.13;;;7.70;99.90;;;;;;5052818;28;20076;-66
2022/04/11 05:30:05;;;;;;;13.73;6.32;;;7.70;99.90;;;;;;5052425;28;20433;-65
2022/04/11 05:32:33;;;;;;;15.57;6.57;;;7.70;99.90;;;;;;5052116;28;20032;-64
2022/04/11 05:34:59;;;;;;;10.75;5.45;;;7.80;99.90;;;;;;5052668;28;20017;-66
2022/04/11 05:37:24;;;;;;;10.75;5.90;;;7.80;99.90;;;;;;5050839;28;20029;-64
2022/04/11 05:39:50;;;;;;;16.08;6.57;;;7.90;99.90;;;;;;5052883;28;20021;-64
2022/04/11 05:42:15;;;;;;;15.93;6.45;;;7.90;99.90;;;;;;5050589;28;20029;-64
2022/04/11 05:44:41;;;;;;;17.15;6.63;;;8.00;99.90;;;;;;5052711;28;20368;-65
2022/04/11 05:47:07;;;;;;;12.98;6.63;;;8.10;99.90;;;;;;5051512;28;20108;-65
2022/04/11 05:49:32;;;;;;;14.85;6.22;;;8.20;99.90;;;;;;5052292;28;20040;-65
2022/04/11 05:51:58;;;;;;;14.73;6.65;;;8.20;99.90;;;;;;5051930;28;20029;-65
2022/04/11 05:54:23;;;;;;;13.57;6.85;;;8.30;99.90;;;;;;5051623;28;20025;-65
2022/04/11 05:56:49;;;;;;;17.75;6.68;;;8.40;99.90;;;;;;5050294;28;20342;-65
2022/04/11 05:59:14;;;;;;;15.63;6.65;;;8.40;99.90;;;;;;5052715;28;20120;-65
2022/04/11 06:01:42;;;;;;;16.65;7.82;;;8.50;99.90;;;;;;5052162;28;20483;-65
2022/04/11 06:04:08;;;;;;;17.10;6.97;;;8.60;99.90;;;;;;5052073;28;20036;-65
2022/04/11 06:06:33;;;;;;;14.43;7.03;;;8.60;99.90;;;;;;5051594;28;20029;-65
2022/04/11 06:08:59;;;;;;;16.63;7.43;;;8.60;99.90;;;;;;5051117;28;20032;-65
2022/04/11 06:11:25;;;;;;;15.40;7.10;;;8.60;99.90;;;;;;5052525;28;20029;-66
2022/04/11 06:13:50;;;;;;;17.02;7.05;;;8.70;99.90;;;;;;5052270;28;20450;-66
2022/04/11 06:16:16;;;;;;;15.05;7.03;;;8.70;99.90;;;;;;5050993;28;20074;-65
2022/04/11 06:18:41;;;;;;;15.45;7.85;;;8.80;99.90;;;;;;5050802;28;20032;-65
2022/04/11 06:21:07;;;;;;;18.73;7.70;;;8.90;99.90;;;;;;5049490;28;20021;-65
2022/04/11 06:23:33;;;;;;;19.13;7.60;;;8.90;99.90;;;;;;5052063;28;20095;-65
2022/04/11 06:26:00;;;;;;;17.58;7.82;;;9.10;99.90;;;;;;5050979;28;20463;-65
2022/04/11 06:28:26;;;;;;;14.20;7.22;;;9.20;99.90;;;;;;5051977;28;20122;-65
2022/04/11 06:30:51;;;;;;;18.10;8.35;;;9.40;99.90;;;;;;5052233;28;20095;-65
2022/04/11 06:33:18;;;;;;;15.13;7.35;;;9.50;99.90;;;;;;5051997;28;20029;-65
2022/04/11 06:35:43;;;;;;;15.57;7.63;;;9.70;99.90;;;;;;5051832;28;20023;-65
2022/04/11 06:38:09;;;;;;;18.48;7.70;;;9.90;99.90;;;;;;5051694;28;20108;-65
2022/04/11 06:40:35;;;;;;;18.52;8.43;;;10.10;99.90;;;;;;5051917;28;20338;-64
2022/04/11 06:43:00;;;;;;;15.73;7.55;;;10.40;99.90;;;;;;5051736;28;20029;-66
2022/04/11 06:45:26;;;;;;;15.70;7.93;;;10.70;99.90;;;;;;5051975;28;20025;-65
2022/04/11 06:47:51;;;;;;;21.52;8.20;;;10.80;99.90;;;;;;5051322;28;20045;-64
2022/04/11 06:50:17;;;;;;;15.77;7.38;;;11.10;99.70;;;;;;5050378;28;20029;-65
2022/04/11 06:52:42;;;;;;;17.33;7.80;;;11.30;99.20;;;;;;5051897;28;20040;-65
2022/04/11 06:55:08;;;;;;;20.13;7.95;;;11.40;98.90;;;;;;5051464;28;20091;-66
2022/04/11 06:57:34;;;;;;;16.30;7.78;;;11.50;98.70;;;;;;5051758;28;20013;-66
2022/04/11 07:00:01;;;;;;;13.98;6.97;;;11.70;98.40;;;;;;5052017;28;20345;-66
2022/04/11 07:02:27;;;;;;;17.20;8.23;;;11.80;98.30;;;;;;5051528;28;20032;-66
2022/04/11 07:04:53;;;;;;;15.70;8.05;;;11.90;98.20;;;;;;5051767;28;20096;-65
2022/04/11 07:07:19;;;;;;;15.63;7.80;;;12.00;97.90;;;;;;5049827;28;20017;-65
2022/04/11 07:09:45;;;;;;;18.98;8.32;;;12.20;97.80;;;;;;5051695;28;20044;-64
2022/04/11 07:12:11;;;;;;;18.13;8.10;;;12.30;97.50;;;;;;5050248;28;20036;-65
2022/04/11 07:14:36;;;;;;;18.48;8.60;;;12.40;97.20;;;;;;5049402;28;20043;-66
2022/04/11 07:17:02;;;;;;;19.55;8.52;;;12.40;97.00;;;;;;5049729;28;20025;-66
2022/04/11 07:19:28;;;;;;;17.98;8.60;;;12.40;96.70;;;;;;5050521;28;20083;-65
2022/04/11 07:21:53;;;;;;;21.85;9.27;;;12.40;96.80;;;;;;5049735;28;20477;-65
2022/04/11 07:24:19;;;;;;;16.95;8.52;;;12.30;96.80;;;;;;5051317;28;20025;-66
2022/04/11 07:26:44;;;;;;;17.90;8.68;;;12.20;96.90;;;;;;5050389;28;20040;-66
2022/04/11 07:29:10;;;;;;;16.33;8.40;;;12.20;97.10;;;;;;5051313;28;20066;-65
2022/04/11 07:31:36;;;;;;;16.45;8.68;;;12.30;97.40;;;;;;5050744;28;20088;-65
2022/04/11 07:34:01;;;;;;;15.63;7.95;;;12.50;97.00;;;;;;5051772;28;20112;-66
2022/04/11 07:36:28;;;;;;;15.00;7.97;;;12.70;96.70;;;;;;5051180;28;20102;-65
2022/04/11 07:38:57;;;;;;;17.67;8.25;;;12.90;96.30;;;;;;5055570;28;20400;-65
2022/04/11 07:41:26;;;;;;;17.73;8.38;;;13.30;96.10;;;;;;5055207;28;20021;-65
2022/04/11 07:43:56;;;;;;;16.77;8.20;;;13.70;95.00;;;;;;5055332;28;20029;-64
2022/04/11 07:46:22;;;;;;;16.35;8.02;;;14.10;94.50;;;;;;5055149;28;20021;-65
2022/04/11 07:48:48;;;;;;;15.20;8.20;;;14.70;94.20;;;;;;5054881;28;20120;-66
2022/04/11 07:51:13;;;;;;;14.98;7.70;;;15.40;93.10;;;;;;5054778;28;20017;-66
2022/04/11 07:53:39;;;;;;;12.40;7.63;;;16.30;91.90;;;;;;5054402;28;20444;-65
2022/04/11 07:56:04;;;;;;;13.98;7.07;;;17.10;90.80;;;;;;5055103;28;20441;-66
2022/04/11 07:58:30;;;;;;;14.40;7.43;;;17.90;88.90;;;;;;5054944;28;20021;-66
2022/04/11 08:00:55;;;;;;;14.65;7.43;;;18.40;85.40;;;;;;5054459;28;20020;-65
2022/04/11 08:03:21;;;;;;;12.52;7.18;;;18.80;83.70;;;;;;5052632;28;20413;-66
2022/04/11 08:05:47;;;;;;;16.00;7.80;;;19.40;81.70;;;;;;5055175;28;20428;-65
2022/04/11 08:08:12;;;;;;;14.75;7.53;;;20.00;79.40;;;;;;5054249;28;20492;-65
2022/04/11 08:10:39;;;;;;;13.75;6.50;;;20.50;76.40;;;;;;5053402;28;20523;-65
2022/04/11 08:13:04;;;;;;;12.07;7.38;;;21.00;75.00;;;;;;5054779;28;20029;-65
2022/04/11 08:15:31;;;;;;;11.93;6.78;;;21.50;73.00;;;;;;5053117;28;20083;-65
2022/04/11 08:17:58;;;;;;;15.20;7.15;;;21.90;71.60;;;;;;5053142;28;20029;-65
2022/04/11 08:20:24;;;;;;;10.82;6.93;;;22.40;70.60;;;;;;5054440;28;20990;-65
2022/04/11 08:22:50;;;;;;;12.68;6.68;;;22.80;68.10;;;;;;5053871;28;20036;-65
2022/04/11 08:25:16;;;;;;;13.23;6.72;;;23.00;67.50;;;;;;5053800;28;20435;-64
2022/04/11 08:27:43;;;;;;;11.85;6.72;;;23.10;66.90;;;;;;5052604;28;20039;-65
2022/04/11 08:30:10;;;;;;;12.73;7.22;;;23.20;65.80;;;;;;5054563;28;20029;-64
2022/04/11 08:32:49;;;;;;;14.98;7.00;;;23.30;66.20;;;;;;5053727;28;20060;-65
2022/04/11 08:35:18;;;;;;;10.77;6.60;;;23.60;65.80;;;;;;5053383;28;20466;-66
2022/04/11 08:37:43;;;;;;;13.95;7.38;;;24.00;64.90;;;;;;5054029;28;20063;-65
2022/04/11 08:40:14;;;;;;;14.13;5.95;;;24.30;62.90;;;;;;5054116;28;20033;-65
2022/04/11 08:42:41;;;;;;;14.13;6.20;;;24.40;61.80;;;;;;5052757;28;20057;-65
2022/04/11 08:45:08;;;;;;;10.52;6.05;;;24.50;61.00;;;;;;5051874;28;20024;-65
2022/04/11 08:47:34;;;;;;;11.95;5.80;;;24.70;60.20;;;;;;5050101;28;20029;-65
2022/04/11 08:50:01;;;;;;;10.30;5.43;;;24.70;59.00;;;;;;5064020;28;20036;-65
2022/04/11 08:52:28;;;;;;;13.30;6.38;;;24.90;59.30;;;;;;5064160;28;20104;-65
2022/04/11 08:54:54;;;;;;;13.23;6.20;;;25.10;58.30;;;;;;5066009;28;20016;-66
2022/04/11 08:57:22;;;;;;;13.07;6.60;;;25.20;57.90;;;;;;5072364;28;20020;-64
2022/04/11 08:59:47;;;;;;;12.23;6.05;;;25.30;57.40;;;;;;5070216;28;20021;-65
2022/04/11 09:02:13;;;;;;;13.60;6.40;;;25.40;57.90;;;;;;5072965;28;20044;-65
2022/04/11 09:04:54;;;;;;;12.68;5.78;;;25.80;57.50;;;;;;5073068;28;20081;-64
2022/04/11 09:07:21;;;;;;;13.52;6.10;;;26.30;56.20;;;;;;5072947;28;20327;-65
2022/04/11 09:09:46;;;;;;;9.98;5.60;;;26.80;55.30;;;;;;5073043;28;20071;-65
2022/04/11 09:12:19;;;;;;;9.65;5.25;;;27.20;54.90;;;;;;5071540;28;20044;-65
2022/04/11 09:14:55;;;;;;;11.02;5.03;;;27.60;53.90;;;;;;5073508;28;20031;-65
2022/04/11 09:17:24;;;;;;;9.45;4.80;;;27.60;52.40;;;;;;5073708;28;20449;-65
2022/04/11 09:20:13;;;;;;;15.45;5.13;;;27.50;53.10;;;;;;5073600;28;20174;-65
2022/04/11 09:22:39;;;;;;;9.82;4.20;;;27.60;51.60;;;;;;5073574;28;20024;-65
2022/04/11 09:25:12;;;;;;;7.95;4.15;;;27.70;49.70;;;;;;5058766;28;20329;-65
2022/04/11 09:27:38;;;;;;;7.65;4.40;;;27.40;49.20;;;;;;5053289;28;20524;-65
2022/04/11 09:30:22;;;;;;;5.97;4.13;;;27.10;49.80;;;;;;5073392;28;20025;-64
2022/04/11 09:32:57;;;;;;;11.27;4.60;;;26.70;50.10;;;;;;5065566;28;20021;-65
2022/04/11 09:35:30;;;;;;;10.30;4.90;;;26.40;49.90;;;;;;5052837;28;20060;-65
2022/04/11 09:38:06;;;;;;;9.80;4.95;;;26.50;50.10;;;;;;5053144;28;20465;-65
2022/04/11 09:40:38;;;;;;;9.75;4.93;;;26.60;50.20;;;;;;5053775;28;20017;-65
2022/04/11 09:43:04;;;;;;;11.48;5.25;;;26.90;50.00;;;;;;5071490;28;20020;-65
2022/04/11 09:45:30;;;;;;;7.50;4.32;;;27.10;48.70;;;;;;5072468;28;20025;-65
2022/04/11 09:48:00;;;;;;;10.27;5.18;;;27.10;48.40;;;;;;5072733;28;20499;-65
2022/04/11 09:50:29;;;;;;;8.57;5.05;;;27.10;48.40;;;;;;5073153;28;20064;-65
2022/04/11 09:53:16;;;;;;;9.75;4.75;;;27.10;47.60;;;;;;5071801;28;20021;-65
2022/04/11 09:55:43;;;;;;;9.35;5.05;;;27.20;48.40;;;;;;5073024;28;20043;-64
2022/04/11 09:58:09;;;;;;;10.73;4.38;;;27.40;48.20;;;;;;5066896;28;20031;-64
2022/04/11 10:00:37;;;;;;;9.18;4.78;;;27.80;46.60;;;;;;5052677;28;20357;-65
2022/04/11 10:03:03;;;;;;;7.60;4.28;;;27.70;45.90;;;;;;5053004;28;20021;-65
2022/04/11 10:05:29;;;;;;;8.85;4.10;;;27.30;46.30;;;;;;5052378;28;20021;-65
2022/04/11 10:07:55;;;;;;;9.40;4.60;;;27.20;46.30;;;;;;5052617;28;20035;-65
2022/04/11 10:10:23;;;;;;;10.35;4.88;;;27.40;46.10;;;;;;5052308;28;20024;-65
2022/04/11 10:12:49;;;;;;;9.90;4.75;;;27.60;45.00;;;;;;5052177;28;20033;-65
2022/04/11 10:15:15;;;;;;;12.10;4.85;;;27.40;45.20;;;;;;5052733;28;20025;-65
2022/04/11 10:17:41;;;;;;;11.32;4.80;;;27.40;45.70;;;;;;5051142;28;20028;-64
2022/04/11 10:20:07;;;;;;;8.35;4.53;;;27.20;44.80;;;;;;5052587;28;20021;-64
2022/04/11 10:22:42;;;;;;;10.80;4.90;;;27.20;45.30;;;;;;5052588;28;20083;-65
2022/04/11 10:25:09;;;;;;;10.95;5.65;;;27.20;45.30;;;;;;5052122;28;20020;-64
2022/04/11 10:27:37;;;;;;;10.07;5.38;;;27.30;44.90;;;;;;5052019;28;20045;-64
2022/04/11 10:30:29;;;;;;;10.20;6.05;;;27.10;44.30;;;;;;5052113;28;20441;-64
2022/04/11 10:32:56;;;;;;;10.43;5.68;;;26.80;44.30;;;;;;5052099;28;20052;-64
2022/04/11 10:35:39;;;;;;;7.55;4.85;;;26.60;45.10;;;;;;5051989;28;20029;-65
2022/04/11 10:38:06;;;;;;;7.47;5.47;;;26.80;44.50;;;;;;5052314;28;20025;-64
2022/04/11 10:40:31;;;;;;;9.27;5.03;;;26.90;44.10;;;;;;5051978;28;20021;-64
2022/04/11 10:43:00;;;;;;;8.25;4.80;;;26.80;44.20;;;;;;5051986;28;20039;-65
2022/04/11 10:45:36;;;;;;;11.48;5.40;;;26.70;44.40;;;;;;5052196;28;20017;-65
2022/04/11 10:48:03;;;;;;;9.18;4.88;;;26.70;44.60;;;;;;5051954;28;20071;-65
2022/04/11 10:50:37;;;;;;;10.90;4.78;;;26.60;44.20;;;;;;5051910;28;20025;-66
2022/04/11 10:53:24;;;;;;;10.32;4.80;;;26.30;44.50;;;;;;5051960;28;20167;-65
2022/04/11 10:55:56;;;;;;;8.80;4.97;;;26.60;44.90;;;;;;5051604;28;20360;-65
2022/04/11 10:58:49;;;;;;;11.93;5.28;;;26.50;44.80;;;;;;5051468;28;20029;-65
2022/04/11 11:01:15;;;;;;;13.40;5.72;;;26.30;44.90;;;;;;5048533;28;20037;-65
2022/04/11 11:03:58;;;;;;;11.88;5.13;;;26.60;45.00;;;;;;5051868;28;20445;-65
2022/04/11 11:06:24;;;;;;;8.00;4.82;;;27.00;44.30;;;;;;5051723;28;20048;-65
2022/04/11 11:08:49;;;;;;;8.75;4.80;;;27.10;44.00;;;;;;5051372;28;20069;-65
2022/04/11 11:11:20;;;;;;;8.80;5.07;;;27.10;43.90;;;;;;5051999;28;20017;-65
2022/04/11 11:13:47;;;;;;;7.90;5.55;;;27.00;44.20;;;;;;5055624;28;20412;-65
2022/04/11 11:16:14;;;;;;;7.85;5.05;;;27.00;44.00;;;;;;5056103;28;20025;-65
2022/04/11 11:18:48;;;;;;;7.95;5.07;;;27.20;44.00;;;;;;5056070;28;20456;-65
2022/04/11 11:21:35;;;;;;;8.15;4.80;;;26.90;44.30;;;;;;5055639;28;20332;-65
2022/04/11 11:24:04;;;;;;;9.70;4.75;;;26.50;44.20;;;;;;5055644;28;20078;-65
2022/04/11 11:26:46;;;;;;;9.85;5.43;;;26.20;44.10;;;;;;5055413;28;20095;-65
2022/04/11 11:29:23;;;;;;;10.73;5.55;;;26.20;44.20;;;;;;5055386;28;20492;-65
2022/04/11 11:31:54;;;;;;;11.35;5.25;;;26.20;44.40;;;;;;5055564;28;20017;-65
2022/04/11 11:34:26;;;;;;;9.68;5.28;;;26.30;44.70;;;;;;5055793;28;20078;-65
2022/04/11 11:37:00;;;;;;;10.27;5.68;;;26.50;44.80;;;;;;5055425;28;20024;-64
2022/04/11 11:39:27;;;;;;;9.45;5.45;;;26.90;44.50;;;;;;5055556;28;20039;-64
2022/04/11 11:41:55;;;;;;;10.65;5.85;;;27.10;44.70;;;;;;5055279;28;20017;-64
2022/04/11 11:44:21;;;;;;;8.40;5.72;;;27.40;44.30;;;;;;5055304;28;20063;-64
2022/04/11 11:46:53;;;;;;;11.55;5.95;;;27.40;43.50;;;;;;5054136;28;20368;-65
2022/04/11 11:49:20;;;;;;;11.70;6.55;;;27.30;44.00;;;;;;5055212;28;20051;-65
2022/04/11 11:51:47;;;;;;;11.57;6.15;;;27.20;44.00;;;;;;5054833;28;20064;-64
2022/04/11 11:54:13;;;;;;;9.80;6.15;;;27.20;44.30;;;;;;5055359;28;20078;-64
2022/04/11 11:56:43;;;;;;;9.90;6.10;;;27.20;43.70;;;;;;5055062;28;20135;-64
2022/04/11 11:59:12;;;;;;;11.52;6.43;;;27.10;42.70;;;;;;5055137;28;20071;-64
2022/04/11 12:01:39;;;;;;;11.93;6.70;;;26.80;43.10;;;;;;5053582;28;20116;-64
2022/04/11 12:04:20;;;;;;;10.40;6.05;;;26.60;43.00;;;;;;5055001;28;20029;-64
2022/04/11 12:06:55;;;;;;;12.80;6.43;;;26.80;42.90;;;;;;5054908;28;20017;-64
2022/04/11 12:09:21;;;;;;;10.55;6.30;;;27.00;42.30;;;;;;5054577;28;20395;-64
2022/04/11 12:11:47;;;;;;;10.65;6.47;;;27.10;41.80;;;;;;5053575;28;20099;-64
2022/04/11 12:14:12;;;;;;;11.52;6.22;;;27.10;42.10;;;;;;5054875;28;20492;-64
2022/04/11 12:17:00;;;;;;;10.27;6.15;;;27.00;42.10;;;;;;5054763;28;20020;-65
2022/04/11 12:19:37;;;;;;;11.23;6.47;;;26.90;41.60;;;;;;5054928;28;20041;-64
2022/04/11 12:22:14;;;;;;;9.35;6.28;;;26.60;42.20;;;;;;5052900;28;20117;-65
2022/04/11 12:24:41;;;;;;;12.93;6.45;;;26.20;42.20;;;;;;5051851;28;20056;-65
2022/04/11 12:27:13;;;;;;;12.05;7.05;;;25.70;42.50;;;;;;5054545;28;20124;-64
2022/04/11 12:29:41;;;;;;;10.95;6.20;;;25.30;42.80;;;;;;5054525;28;20120;-64
2022/04/11 12:32:15;;;;;;;12.18;6.90;;;25.00;43.10;;;;;;5054027;28;20487;-64
2022/04/11 12:34:43;;;;;;;14.18;7.20;;;24.80;43.50;;;;;;5054767;28;20029;-64
2022/04/11 12:37:10;;;;;;;13.05;7.43;;;24.40;43.70;;;;;;5054360;28;20056;-64
2022/04/11 12:39:56;;;;;;;15.07;7.72;;;24.10;44.10;;;;;;5054421;28;20052;-64
2022/04/11 12:42:24;;;;;;;13.98;8.10;;;24.00;44.50;;;;;;5054503;28;20043;-64
2022/04/11 12:45:03;;;;;;;12.65;7.60;;;24.00;44.50;;;;;;5053803;28;20025;-64
2022/04/11 12:47:29;;;;;;;13.18;7.07;;;23.90;45.00;;;;;;5054024;28;20524;-64